首页
METAR-TAF:

METAR-TAF

机场 :

伊斯法罕, 伊朗

纬度: 32-28N, 经度: 051-43E, 海拔: 1590米

当前天气观测

该预报发布于25分钟前的03:00 UTC
风速4节,风向西转西南
温度 11°C
湿度 35%
气压 1021 hPa
能見度: 7000

METAR: OIFM 220300Z 25004KT 7000 NSC 11/M04 Q1020 A3015

时间: 07:55 (03:25 UTC)

预报

该预报发布于4小时和25分钟前的23:00 UTC
预报有效从22日的 00点(UTC)到 23日的 06点(UTC)
风速8节,风向南转南东
能見度: 7000
成为
从 22日的 01点(UTC)到 22日的 02点(UTC)
能見度: 4000
成为
从 22日的 05点(UTC)到 22日的 06点(UTC)
能見度: 7000
成为
从 22日的 11点(UTC)到 22日的 12点(UTC)
风速18节,风向东北
成为
从 22日的 16点(UTC)到 22日的 18点(UTC)
风速8节,风向东北
成为
从 23日的 01点(UTC)到 23日的 02点(UTC)
能見度: 3000
成为
从 23日的 05点(UTC)到 23日的 06点(UTC)
能見度: 7000

TAF: OIFM 212300Z 2200/2306 16008KT 7000 NSC BECMG 2201/2202 4000 HZ BECMG 2205/2206 7000 NSC BECMG 2211/2212 04018KT BECMG 2216/2218 04008KT BECMG 2301/2302 3000 HZ BECMG 2305/2306 7000 NSC

超过4000个机场的气象观测和天气预报(METAR&TAF报告)。

可查询的气象台以黄色和红色小点在地图上表示。

将鼠标移到小点上方,可查看气象台名称。

然后点击查看天气观测和预报。

如需切换地图:点击带黑十字的绿色按钮放大地图;点击带横线的绿色按钮缩小地图;或者点击绿色箭头查看邻近地区的地图。


METAR-TAF: